sensor_id;sensor_type;location;lat;lon;timestamp;temperature;humidity
12704;DHT22;6416;52.182;7.650;2023-05-10T00:01:23;18.40;94.80
12704;DHT22;6416;52.182;7.650;2023-05-10T00:03:49;18.40;94.80
12704;DHT22;6416;52.182;7.650;2023-05-10T00:06:14;18.40;94.80
12704;DHT22;6416;52.182;7.650;2023-05-10T00:08:40;18.40;94.80
12704;DHT22;6416;52.182;7.650;2023-05-10T00:11:05;18.40;94.90
12704;DHT22;6416;52.182;7.650;2023-05-10T00:13:31;18.40;94.90
12704;DHT22;6416;52.182;7.650;2023-05-10T00:15:56;18.30;94.90
12704;DHT22;6416;52.182;7.650;2023-05-10T00:18:22;18.30;94.90
12704;DHT22;6416;52.182;7.650;2023-05-10T00:20:47;18.30;94.90
12704;DHT22;6416;52.182;7.650;2023-05-10T00:23:13;18.30;94.90
12704;DHT22;6416;52.182;7.650;2023-05-10T00:25:38;18.30;94.90
12704;DHT22;6416;52.182;7.650;2023-05-10T00:28:04;18.30;94.80
12704;DHT22;6416;52.182;7.650;2023-05-10T00:30:29;18.20;94.90
12704;DHT22;6416;52.182;7.650;2023-05-10T00:32:55;18.20;94.90
12704;DHT22;6416;52.182;7.650;2023-05-10T00:35:20;18.20;95.00
12704;DHT22;6416;52.182;7.650;2023-05-10T00:37:46;18.20;95.00
12704;DHT22;6416;52.182;7.650;2023-05-10T00:40:11;18.20;95.10
12704;DHT22;6416;52.182;7.650;2023-05-10T00:42:37;18.20;95.00
12704;DHT22;6416;52.182;7.650;2023-05-10T00:45:03;18.20;95.10
12704;DHT22;6416;52.182;7.650;2023-05-10T00:47:28;18.20;95.20
12704;DHT22;6416;52.182;7.650;2023-05-10T00:49:54;18.20;95.30
12704;DHT22;6416;52.182;7.650;2023-05-10T00:52:20;18.20;95.30
12704;DHT22;6416;52.182;7.650;2023-05-10T00:54:46;18.20;95.30
12704;DHT22;6416;52.182;7.650;2023-05-10T00:57:11;18.20;95.30
12704;DHT22;6416;52.182;7.650;2023-05-10T00:59:37;18.20;95.30
12704;DHT22;6416;52.182;7.650;2023-05-10T01:02:03;18.20;95.20
12704;DHT22;6416;52.182;7.650;2023-05-10T01:04:28;18.20;95.20
12704;DHT22;6416;52.182;7.650;2023-05-10T01:06:54;18.20;95.20
12704;DHT22;6416;52.182;7.650;2023-05-10T01:09:21;18.20;95.20
12704;DHT22;6416;52.182;7.650;2023-05-10T01:11:47;18.20;95.30
12704;DHT22;6416;52.182;7.650;2023-05-10T01:14:15;18.20;95.40
12704;DHT22;6416;52.182;7.650;2023-05-10T01:16:44;18.20;95.30
12704;DHT22;6416;52.182;7.650;2023-05-10T01:19:24;18.20;95.20
12704;DHT22;6416;52.182;7.650;2023-05-10T01:27:29;18.10;94.70
12704;DHT22;6416;52.182;7.650;2023-05-10T01:30:12;18.10;94.70
12704;DHT22;6416;52.182;7.650;2023-05-10T01:35:40;18.10;94.50
12704;DHT22;6416;52.182;7.650;2023-05-10T01:41:08;18.00;94.50
12704;DHT22;6416;52.182;7.650;2023-05-10T01:46:32;18.00;94.30
12704;DHT22;6416;52.182;7.650;2023-05-10T01:49:00;18.00;94.30
12704;DHT22;6416;52.182;7.650;2023-05-10T01:51:31;17.90;94.40
12704;DHT22;6416;52.182;7.650;2023-05-10T01:54:01;17.90;94.60
12704;DHT22;6416;52.182;7.650;2023-05-10T01:56:30;17.80;94.60
12704;DHT22;6416;52.182;7.650;2023-05-10T01:58:58;17.80;94.60
12704;DHT22;6416;52.182;7.650;2023-05-10T02:01:25;17.80;94.30
12704;DHT22;6416;52.182;7.650;2023-05-10T02:03:55;17.80;94.10
12704;DHT22;6416;52.182;7.650;2023-05-10T02:06:21;17.80;94.00
12704;DHT22;6416;52.182;7.650;2023-05-10T02:08:49;17.70;93.80
12704;DHT22;6416;52.182;7.650;2023-05-10T02:11:14;17.70;93.70
12704;DHT22;6416;52.182;7.650;2023-05-10T02:13:41;17.60;93.50
12704;DHT22;6416;52.182;7.650;2023-05-10T02:16:08;17.60;93.50
12704;DHT22;6416;52.182;7.650;2023-05-10T02:18:34;17.50;93.50
12704;DHT22;6416;52.182;7.650;2023-05-10T02:21:02;17.50;93.60
12704;DHT22;6416;52.182;7.650;2023-05-10T02:23:28;17.50;93.60
12704;DHT22;6416;52.182;7.650;2023-05-10T02:25:55;17.50;93.60
12704;DHT22;6416;52.182;7.650;2023-05-10T02:28:23;17.40;93.60
12704;DHT22;6416;52.182;7.650;2023-05-10T02:30:51;17.40;93.70
12704;DHT22;6416;52.182;7.650;2023-05-10T02:33:17;17.30;93.70
12704;DHT22;6416;52.182;7.650;2023-05-10T02:35:44;17.30;94.00
12704;DHT22;6416;52.182;7.650;2023-05-10T02:38:10;17.30;93.70
12704;DHT22;6416;52.182;7.650;2023-05-10T02:40:36;17.30;93.70
12704;DHT22;6416;52.182;7.650;2023-05-10T02:43:04;17.20;93.60
12704;DHT22;6416;52.182;7.650;2023-05-10T02:45:32;17.20;93.60
12704;DHT22;6416;52.182;7.650;2023-05-10T02:47:59;17.20;93.60
12704;DHT22;6416;52.182;7.650;2023-05-10T02:50:27;17.20;93.60
12704;DHT22;6416;52.182;7.650;2023-05-10T02:52:59;17.10;93.50
12704;DHT22;6416;52.182;7.650;2023-05-10T02:55:27;17.10;93.50
12704;DHT22;6416;52.182;7.650;2023-05-10T02:57:58;17.10;93.60
12704;DHT22;6416;52.182;7.650;2023-05-10T03:00:25;17.10;93.70
12704;DHT22;6416;52.182;7.650;2023-05-10T03:02:51;17.00;93.70
12704;DHT22;6416;52.182;7.650;2023-05-10T03:05:17;17.00;93.70
12704;DHT22;6416;52.182;7.650;2023-05-10T03:07:43;17.00;94.00
12704;DHT22;6416;52.182;7.650;2023-05-10T03:10:09;17.00;93.60
12704;DHT22;6416;52.182;7.650;2023-05-10T03:13:01;17.00;93.60
12704;DHT22;6416;52.182;7.650;2023-05-10T03:15:59;17.00;93.40
12704;DHT22;6416;52.182;7.650;2023-05-10T03:21:22;17.00;93.40
12704;DHT22;6416;52.182;7.650;2023-05-10T03:24:15;16.90;93.50
12704;DHT22;6416;52.182;7.650;2023-05-10T03:26:40;16.90;93.50
12704;DHT22;6416;52.182;7.650;2023-05-10T03:29:08;16.90;93.60
12704;DHT22;6416;52.182;7.650;2023-05-10T03:31:35;16.90;93.70
12704;DHT22;6416;52.182;7.650;2023-05-10T03:34:00;16.90;93.70
12704;DHT22;6416;52.182;7.650;2023-05-10T03:36:26;16.80;93.80
12704;DHT22;6416;52.182;7.650;2023-05-10T03:38:51;16.80;94.10
12704;DHT22;6416;52.182;7.650;2023-05-10T03:41:17;16.80;93.80
12704;DHT22;6416;52.182;7.650;2023-05-10T03:43:42;16.80;93.80
12704;DHT22;6416;52.182;7.650;2023-05-10T03:46:08;16.80;93.80
12704;DHT22;6416;52.182;7.650;2023-05-10T03:48:33;16.80;93.70
12704;DHT22;6416;52.182;7.650;2023-05-10T03:50:59;16.80;93.70
12704;DHT22;6416;52.182;7.650;2023-05-10T03:53:25;16.80;93.70
12704;DHT22;6416;52.182;7.650;2023-05-10T03:55:50;16.80;93.70
12704;DHT22;6416;52.182;7.650;2023-05-10T03:58:16;16.80;93.70
12704;DHT22;6416;52.182;7.650;2023-05-10T04:00:41;16.80;93.70
12704;DHT22;6416;52.182;7.650;2023-05-10T04:03:07;16.80;93.80
12704;DHT22;6416;52.182;7.650;2023-05-10T04:05:32;16.80;93.80
12704;DHT22;6416;52.182;7.650;2023-05-10T04:07:58;16.80;93.80
12704;DHT22;6416;52.182;7.650;2023-05-10T04:10:23;16.80;93.80
12704;DHT22;6416;52.182;7.650;2023-05-10T04:12:49;16.80;93.80
12704;DHT22;6416;52.182;7.650;2023-05-10T04:15:14;16.80;93.80
12704;DHT22;6416;52.182;7.650;2023-05-10T04:17:40;16.80;93.70
12704;DHT22;6416;52.182;7.650;2023-05-10T04:20:06;16.80;93.80
12704;DHT22;6416;52.182;7.650;2023-05-10T04:22:32;16.80;93.80
12704;DHT22;6416;52.182;7.650;2023-05-10T04:24:57;16.70;93.70
12704;DHT22;6416;52.182;7.650;2023-05-10T04:27:23;16.80;93.60
12704;DHT22;6416;52.182;7.650;2023-05-10T04:29:48;16.70;93.60
12704;DHT22;6416;52.182;7.650;2023-05-10T04:32:16;16.70;93.60
12704;DHT22;6416;52.182;7.650;2023-05-10T04:34:42;16.70;93.70
12704;DHT22;6416;52.182;7.650;2023-05-10T04:37:08;16.70;93.70
12704;DHT22;6416;52.182;7.650;2023-05-10T04:39:33;16.70;93.80
12704;DHT22;6416;52.182;7.650;2023-05-10T04:41:59;16.70;93.80
12704;DHT22;6416;52.182;7.650;2023-05-10T04:44:24;16.70;93.80
12704;DHT22;6416;52.182;7.650;2023-05-10T04:46:50;16.70;93.80
12704;DHT22;6416;52.182;7.650;2023-05-10T04:49:15;16.70;93.80
12704;DHT22;6416;52.182;7.650;2023-05-10T04:51:41;16.70;93.90
12704;DHT22;6416;52.182;7.650;2023-05-10T04:54:06;16.70;93.90
12704;DHT22;6416;52.182;7.650;2023-05-10T04:56:32;16.70;93.90
12704;DHT22;6416;52.182;7.650;2023-05-10T04:58:57;16.70;93.90
12704;DHT22;6416;52.182;7.650;2023-05-10T05:01:23;16.70;94.00
12704;DHT22;6416;52.182;7.650;2023-05-10T05:03:48;16.70;94.10
12704;DHT22;6416;52.182;7.650;2023-05-10T05:06:14;16.70;94.20
12704;DHT22;6416;52.182;7.650;2023-05-10T05:08:39;16.70;94.50
12704;DHT22;6416;52.182;7.650;2023-05-10T05:11:05;16.80;94.20
12704;DHT22;6416;52.182;7.650;2023-05-10T05:13:30;16.80;94.20
12704;DHT22;6416;52.182;7.650;2023-05-10T05:15:56;16.80;94.20
12704;DHT22;6416;52.182;7.650;2023-05-10T05:18:21;16.80;94.20
12704;DHT22;6416;52.182;7.650;2023-05-10T05:20:46;16.70;94.20
12704;DHT22;6416;52.182;7.650;2023-05-10T05:23:13;16.80;94.20
12704;DHT22;6416;52.182;7.650;2023-05-10T05:25:38;16.80;94.30
12704;DHT22;6416;52.182;7.650;2023-05-10T05:28:04;16.80;94.30
12704;DHT22;6416;52.182;7.650;2023-05-10T05:30:29;16.90;94.40
12704;DHT22;6416;52.182;7.650;2023-05-10T05:32:55;16.90;94.60
12704;DHT22;6416;52.182;7.650;2023-05-10T05:35:20;16.90;94.70
12704;DHT22;6416;52.182;7.650;2023-05-10T05:37:46;16.90;94.70
12704;DHT22;6416;52.182;7.650;2023-05-10T05:40:15;17.00;94.80
12704;DHT22;6416;52.182;7.650;2023-05-10T05:42:40;17.00;94.70
12704;DHT22;6416;52.182;7.650;2023-05-10T05:45:06;17.00;94.90
12704;DHT22;6416;52.182;7.650;2023-05-10T05:47:32;17.10;94.90
12704;DHT22;6416;52.182;7.650;2023-05-10T05:49:57;17.10;94.90
12704;DHT22;6416;52.182;7.650;2023-05-10T05:52:22;17.10;94.90
12704;DHT22;6416;52.182;7.650;2023-05-10T05:54:48;17.20;94.90
12704;DHT22;6416;52.182;7.650;2023-05-10T05:57:13;17.20;94.80
12704;DHT22;6416;52.182;7.650;2023-05-10T05:59:39;17.20;94.70
12704;DHT22;6416;52.182;7.650;2023-05-10T06:02:05;17.20;94.50
12704;DHT22;6416;52.182;7.650;2023-05-10T06:04:30;17.20;94.50
12704;DHT22;6416;52.182;7.650;2023-05-10T06:06:56;17.30;94.50
12704;DHT22;6416;52.182;7.650;2023-05-10T06:09:21;17.30;94.50
12704;DHT22;6416;52.182;7.650;2023-05-10T06:11:46;17.30;94.60
12704;DHT22;6416;52.182;7.650;2023-05-10T06:14:12;17.30;94.60
12704;DHT22;6416;52.182;7.650;2023-05-10T06:16:37;17.30;94.60
12704;DHT22;6416;52.182;7.650;2023-05-10T06:19:03;17.30;94.60
12704;DHT22;6416;52.182;7.650;2023-05-10T06:21:28;17.40;94.80
12704;DHT22;6416;52.182;7.650;2023-05-10T06:23:54;17.40;95.00
12704;DHT22;6416;52.182;7.650;2023-05-10T06:26:20;17.40;95.10
12704;DHT22;6416;52.182;7.650;2023-05-10T06:28:45;17.50;95.20
12704;DHT22;6416;52.182;7.650;2023-05-10T06:31:11;17.50;95.70
12704;DHT22;6416;52.182;7.650;2023-05-10T06:33:36;17.60;96.00
12704;DHT22;6416;52.182;7.650;2023-05-10T06:36:02;17.70;96.50
12704;DHT22;6416;52.182;7.650;2023-05-10T06:38:27;17.80;96.70
12704;DHT22;6416;52.182;7.650;2023-05-10T06:40:52;17.90;96.70
12704;DHT22;6416;52.182;7.650;2023-05-10T06:43:18;18.00;96.90
12704;DHT22;6416;52.182;7.650;2023-05-10T06:45:43;18.10;96.90
12704;DHT22;6416;52.182;7.650;2023-05-10T06:48:09;18.20;96.90
12704;DHT22;6416;52.182;7.650;2023-05-10T06:50:35;18.30;96.70
12704;DHT22;6416;52.182;7.650;2023-05-10T06:53:00;18.30;96.20
12704;DHT22;6416;52.182;7.650;2023-05-10T06:55:26;18.30;95.90
12704;DHT22;6416;52.182;7.650;2023-05-10T06:57:52;18.40;95.60
12704;DHT22;6416;52.182;7.650;2023-05-10T07:00:18;18.40;95.20
12704;DHT22;6416;52.182;7.650;2023-05-10T07:02:43;18.40;94.90
12704;DHT22;6416;52.182;7.650;2023-05-10T07:05:09;18.40;94.60
12704;DHT22;6416;52.182;7.650;2023-05-10T07:07:35;18.40;94.40
12704;DHT22;6416;52.182;7.650;2023-05-10T07:10:00;18.40;94.60
12704;DHT22;6416;52.182;7.650;2023-05-10T07:12:27;18.40;94.70
12704;DHT22;6416;52.182;7.650;2023-05-10T07:14:52;18.40;95.00
12704;DHT22;6416;52.182;7.650;2023-05-10T07:17:18;18.50;95.50
12704;DHT22;6416;52.182;7.650;2023-05-10T07:19:44;18.50;95.80
12704;DHT22;6416;52.182;7.650;2023-05-10T07:22:09;18.60;95.90
12704;DHT22;6416;52.182;7.650;2023-05-10T07:24:35;18.60;95.80
12704;DHT22;6416;52.182;7.650;2023-05-10T07:27:01;18.60;95.50
12704;DHT22;6416;52.182;7.650;2023-05-10T07:29:26;18.70;95.40
12704;DHT22;6416;52.182;7.650;2023-05-10T07:31:52;18.70;95.30
12704;DHT22;6416;52.182;7.650;2023-05-10T07:34:17;18.70;95.20
12704;DHT22;6416;52.182;7.650;2023-05-10T07:36:43;18.80;95.20
12704;DHT22;6416;52.182;7.650;2023-05-10T07:39:08;18.80;95.10
12704;DHT22;6416;52.182;7.650;2023-05-10T07:41:34;18.80;95.00
12704;DHT22;6416;52.182;7.650;2023-05-10T07:43:59;18.80;95.10
12704;DHT22;6416;52.182;7.650;2023-05-10T07:46:28;18.90;95.40
12704;DHT22;6416;52.182;7.650;2023-05-10T07:48:53;18.90;95.40
12704;DHT22;6416;52.182;7.650;2023-05-10T07:51:19;19.00;95.80
12704;DHT22;6416;52.182;7.650;2023-05-10T07:53:44;19.00;95.70
12704;DHT22;6416;52.182;7.650;2023-05-10T07:56:31;19.10;95.50
12704;DHT22;6416;52.182;7.650;2023-05-10T07:58:56;19.10;93.70
12704;DHT22;6416;52.182;7.650;2023-05-10T08:01:22;19.20;95.00
12704;DHT22;6416;52.182;7.650;2023-05-10T08:03:48;19.20;94.70
12704;DHT22;6416;52.182;7.650;2023-05-10T08:06:17;19.20;94.70
12704;DHT22;6416;52.182;7.650;2023-05-10T08:08:43;19.20;94.20
12704;DHT22;6416;52.182;7.650;2023-05-10T08:11:10;19.20;94.40
12704;DHT22;6416;52.182;7.650;2023-05-10T08:13:36;19.20;94.40
12704;DHT22;6416;52.182;7.650;2023-05-10T08:16:01;19.20;94.30
12704;DHT22;6416;52.182;7.650;2023-05-10T08:18:27;19.30;94.30
12704;DHT22;6416;52.182;7.650;2023-05-10T08:20:52;19.20;94.00
12704;DHT22;6416;52.182;7.650;2023-05-10T08:23:18;19.20;93.90
12704;DHT22;6416;52.182;7.650;2023-05-10T08:25:43;19.20;94.10
12704;DHT22;6416;52.182;7.650;2023-05-10T08:28:09;19.30;94.40
12704;DHT22;6416;52.182;7.650;2023-05-10T08:30:34;19.30;94.60
12704;DHT22;6416;52.182;7.650;2023-05-10T08:33:00;19.30;94.90
12704;DHT22;6416;52.182;7.650;2023-05-10T08:35:25;19.40;95.10
12704;DHT22;6416;52.182;7.650;2023-05-10T08:37:51;19.40;95.00
12704;DHT22;6416;52.182;7.650;2023-05-10T08:40:19;19.40;94.80
12704;DHT22;6416;52.182;7.650;2023-05-10T08:42:58;19.50;94.40
12704;DHT22;6416;52.182;7.650;2023-05-10T08:45:32;19.50;94.20
12704;DHT22;6416;52.182;7.650;2023-05-10T08:48:00;19.60;94.30
12704;DHT22;6416;52.182;7.650;2023-05-10T08:50:26;19.60;94.50
12704;DHT22;6416;52.182;7.650;2023-05-10T08:52:55;19.60;94.90
12704;DHT22;6416;52.182;7.650;2023-05-10T08:55:23;19.70;94.90
12704;DHT22;6416;52.182;7.650;2023-05-10T08:57:49;19.80;95.40
12704;DHT22;6416;52.182;7.650;2023-05-10T09:00:14;19.90;95.70
12704;DHT22;6416;52.182;7.650;2023-05-10T09:02:40;20.00;95.60
12704;DHT22;6416;52.182;7.650;2023-05-10T09:05:07;20.10;95.40
12704;DHT22;6416;52.182;7.650;2023-05-10T09:07:33;20.20;95.10
12704;DHT22;6416;52.182;7.650;2023-05-10T09:09:59;20.30;95.00
12704;DHT22;6416;52.182;7.650;2023-05-10T09:12:24;20.30;94.50
12704;DHT22;6416;52.182;7.650;2023-05-10T09:14:51;20.30;94.00
12704;DHT22;6416;52.182;7.650;2023-05-10T09:17:17;20.40;93.90
12704;DHT22;6416;52.182;7.650;2023-05-10T09:19:44;20.40;94.10
12704;DHT22;6416;52.182;7.650;2023-05-10T09:22:10;20.40;93.90
12704;DHT22;6416;52.182;7.650;2023-05-10T09:24:35;20.50;93.90
12704;DHT22;6416;52.182;7.650;2023-05-10T09:27:01;20.50;93.80
12704;DHT22;6416;52.182;7.650;2023-05-10T09:29:39;20.50;93.70
12704;DHT22;6416;52.182;7.650;2023-05-10T09:32:04;20.60;92.10
12704;DHT22;6416;52.182;7.650;2023-05-10T09:34:31;20.60;93.50
12704;DHT22;6416;52.182;7.650;2023-05-10T09:36:58;20.60;93.00
12704;DHT22;6416;52.182;7.650;2023-05-10T09:39:35;20.50;92.80
12704;DHT22;6416;52.182;7.650;2023-05-10T09:42:05;20.50;91.80
12704;DHT22;6416;52.182;7.650;2023-05-10T09:44:32;20.50;92.80
12704;DHT22;6416;52.182;7.650;2023-05-10T09:46:58;20.60;93.80
12704;DHT22;6416;52.182;7.650;2023-05-10T09:49:23;20.60;94.30
12704;DHT22;6416;52.182;7.650;2023-05-10T09:52:06;20.70;94.70
12704;DHT22;6416;52.182;7.650;2023-05-10T09:54:33;20.90;93.30
12704;DHT22;6416;52.182;7.650;2023-05-10T09:56:59;21.00;95.50
12704;DHT22;6416;52.182;7.650;2023-05-10T09:59:26;21.20;95.20
12704;DHT22;6416;52.182;7.650;2023-05-10T10:01:53;21.40;95.10
12704;DHT22;6416;52.182;7.650;2023-05-10T10:04:20;21.50;94.90
12704;DHT22;6416;52.182;7.650;2023-05-10T10:06:46;21.70;94.50
12704;DHT22;6416;52.182;7.650;2023-05-10T10:09:12;21.80;94.00
12704;DHT22;6416;52.182;7.650;2023-05-10T10:11:39;21.90;93.50
12704;DHT22;6416;52.182;7.650;2023-05-10T10:14:05;21.90;93.20
12704;DHT22;6416;52.182;7.650;2023-05-10T10:16:31;22.00;93.10
12704;DHT22;6416;52.182;7.650;2023-05-10T10:18:57;22.00;93.00
12704;DHT22;6416;52.182;7.650;2023-05-10T10:21:23;22.10;92.90
12704;DHT22;6416;52.182;7.650;2023-05-10T10:23:49;22.20;92.60
12704;DHT22;6416;52.182;7.650;2023-05-10T10:26:17;22.30;92.80
12704;DHT22;6416;52.182;7.650;2023-05-10T10:28:56;22.40;93.10
12704;DHT22;6416;52.182;7.650;2023-05-10T10:31:41;22.50;91.60
12704;DHT22;6416;52.182;7.650;2023-05-10T10:34:11;22.70;92.30
12704;DHT22;6416;52.182;7.650;2023-05-10T10:36:46;23.00;94.30
12704;DHT22;6416;52.182;7.650;2023-05-10T10:39:12;23.20;92.30
12704;DHT22;6416;52.182;7.650;2023-05-10T10:41:49;23.40;93.30
12704;DHT22;6416;52.182;7.650;2023-05-10T10:49:47;24.60;94.40
12704;DHT22;6416;52.182;7.650;2023-05-10T10:52:27;25.20;93.10
12704;DHT22;6416;52.182;7.650;2023-05-10T10:57:45;26.20;91.70
12704;DHT22;6416;52.182;7.650;2023-05-10T11:02:58;26.70;85.50
12704;DHT22;6416;52.182;7.650;2023-05-10T11:07:56;26.80;89.00
12704;DHT22;6416;52.182;7.650;2023-05-10T11:10:23;27.00;87.30
12704;DHT22;6416;52.182;7.650;2023-05-10T11:13:01;27.20;90.00
12704;DHT22;6416;52.182;7.650;2023-05-10T11:15:40;27.50;89.10
12704;DHT22;6416;52.182;7.650;2023-05-10T11:18:19;27.70;85.80
12704;DHT22;6416;52.182;7.650;2023-05-10T11:20:55;28.00;82.30
12704;DHT22;6416;52.182;7.650;2023-05-10T11:23:21;28.20;82.90
12704;DHT22;6416;52.182;7.650;2023-05-10T11:25:48;28.30;85.60
12704;DHT22;6416;52.182;7.650;2023-05-10T11:28:16;28.40;85.00
12704;DHT22;6416;52.182;7.650;2023-05-10T11:30:43;28.60;85.50
12704;DHT22;6416;52.182;7.650;2023-05-10T11:33:11;28.80;84.50
12704;DHT22;6416;52.182;7.650;2023-05-10T11:35:40;29.00;85.00
12704;DHT22;6416;52.182;7.650;2023-05-10T11:38:10;29.30;85.90
12704;DHT22;6416;52.182;7.650;2023-05-10T11:40:36;29.70;86.50
12704;DHT22;6416;52.182;7.650;2023-05-10T11:43:02;30.10;86.50
12704;DHT22;6416;52.182;7.650;2023-05-10T11:45:29;30.50;84.70
12704;DHT22;6416;52.182;7.650;2023-05-10T11:47:56;30.90;83.60
12704;DHT22;6416;52.182;7.650;2023-05-10T11:50:22;31.10;81.90
12704;DHT22;6416;52.182;7.650;2023-05-10T11:52:57;31.40;81.70
12704;DHT22;6416;52.182;7.650;2023-05-10T11:55:23;31.70;76.40
12704;DHT22;6416;52.182;7.650;2023-05-10T11:57:51;32.00;78.30
12704;DHT22;6416;52.182;7.650;2023-05-10T12:00:17;32.00;73.60
12704;DHT22;6416;52.182;7.650;2023-05-10T12:02:43;32.00;73.40
12704;DHT22;6416;52.182;7.650;2023-05-10T12:05:09;31.70;71.40
12704;DHT22;6416;52.182;7.650;2023-05-10T12:07:35;31.40;70.00
12704;DHT22;6416;52.182;7.650;2023-05-10T12:10:08;31.10;69.50
12704;DHT22;6416;52.182;7.650;2023-05-10T12:12:42;30.70;65.70
12704;DHT22;6416;52.182;7.650;2023-05-10T12:15:12;30.50;68.30
12704;DHT22;6416;52.182;7.650;2023-05-10T12:17:38;30.40;70.80
12704;DHT22;6416;52.182;7.650;2023-05-10T12:20:21;30.50;74.50
12704;DHT22;6416;52.182;7.650;2023-05-10T12:22:49;30.60;69.60
12704;DHT22;6416;52.182;7.650;2023-05-10T12:25:14;30.70;74.50
12704;DHT22;6416;52.182;7.650;2023-05-10T12:27:40;30.70;72.90
12704;DHT22;6416;52.182;7.650;2023-05-10T12:30:06;30.60;71.20
12704;DHT22;6416;52.182;7.650;2023-05-10T12:32:39;30.50;70.00
12704;DHT22;6416;52.182;7.650;2023-05-10T12:35:06;30.20;65.80
12704;DHT22;6416;52.182;7.650;2023-05-10T12:37:32;30.10;69.40
12704;DHT22;6416;52.182;7.650;2023-05-10T12:39:57;29.90;68.80
12704;DHT22;6416;52.182;7.650;2023-05-10T12:42:22;29.70;69.30
12704;DHT22;6416;52.182;7.650;2023-05-10T12:44:48;29.50;68.60
12704;DHT22;6416;52.182;7.650;2023-05-10T12:47:13;29.30;68.20
12704;DHT22;6416;52.182;7.650;2023-05-10T12:49:39;29.10;67.90
12704;DHT22;6416;52.182;7.650;2023-05-10T12:52:04;28.90;68.00
12704;DHT22;6416;52.182;7.650;2023-05-10T12:54:30;28.80;67.40
12704;DHT22;6416;52.182;7.650;2023-05-10T12:56:55;28.50;66.50
12704;DHT22;6416;52.182;7.650;2023-05-10T12:59:21;28.30;65.90
12704;DHT22;6416;52.182;7.650;2023-05-10T13:01:46;28.00;65.60
12704;DHT22;6416;52.182;7.650;2023-05-10T13:04:12;27.80;65.60
12704;DHT22;6416;52.182;7.650;2023-05-10T13:06:37;27.60;65.80
12704;DHT22;6416;52.182;7.650;2023-05-10T13:09:03;27.40;66.40
12704;DHT22;6416;52.182;7.650;2023-05-10T13:11:28;27.30;66.60
12704;DHT22;6416;52.182;7.650;2023-05-10T13:13:54;27.20;66.90
12704;DHT22;6416;52.182;7.650;2023-05-10T13:16:19;27.20;67.40
12704;DHT22;6416;52.182;7.650;2023-05-10T13:18:45;27.10;67.30
12704;DHT22;6416;52.182;7.650;2023-05-10T13:21:10;27.10;67.50
12704;DHT22;6416;52.182;7.650;2023-05-10T13:23:36;27.20;67.20
12704;DHT22;6416;52.182;7.650;2023-05-10T13:26:01;27.20;67.10
12704;DHT22;6416;52.182;7.650;2023-05-10T13:28:27;27.20;67.00
12704;DHT22;6416;52.182;7.650;2023-05-10T13:30:52;27.20;66.70
12704;DHT22;6416;52.182;7.650;2023-05-10T13:33:18;27.20;66.90
12704;DHT22;6416;52.182;7.650;2023-05-10T13:35:43;27.20;67.30
12704;DHT22;6416;52.182;7.650;2023-05-10T13:38:09;27.20;66.40
12704;DHT22;6416;52.182;7.650;2023-05-10T13:40:34;27.20;66.20
12704;DHT22;6416;52.182;7.650;2023-05-10T13:43:00;27.30;66.00
12704;DHT22;6416;52.182;7.650;2023-05-10T13:45:25;27.20;65.60
12704;DHT22;6416;52.182;7.650;2023-05-10T13:47:51;27.30;65.60
12704;DHT22;6416;52.182;7.650;2023-05-10T13:50:16;27.30;65.80
12704;DHT22;6416;52.182;7.650;2023-05-10T13:52:42;27.30;65.50
12704;DHT22;6416;52.182;7.650;2023-05-10T13:55:07;27.30;65.00
12704;DHT22;6416;52.182;7.650;2023-05-10T13:57:33;27.10;64.30
12704;DHT22;6416;52.182;7.650;2023-05-10T13:59:59;27.10;64.40
12704;DHT22;6416;52.182;7.650;2023-05-10T14:02:24;27.00;64.50
12704;DHT22;6416;52.182;7.650;2023-05-10T14:04:50;26.80;64.30
12704;DHT22;6416;52.182;7.650;2023-05-10T14:07:15;26.80;64.10
12704;DHT22;6416;52.182;7.650;2023-05-10T14:09:40;26.60;63.90
12704;DHT22;6416;52.182;7.650;2023-05-10T14:12:06;26.60;64.20
12704;DHT22;6416;52.182;7.650;2023-05-10T14:14:32;26.50;64.50
12704;DHT22;6416;52.182;7.650;2023-05-10T14:16:57;26.40;64.80
12704;DHT22;6416;52.182;7.650;2023-05-10T14:19:22;26.40;64.90
12704;DHT22;6416;52.182;7.650;2023-05-10T14:21:48;26.40;65.00
12704;DHT22;6416;52.182;7.650;2023-05-10T14:24:16;26.30;64.80
12704;DHT22;6416;52.182;7.650;2023-05-10T14:26:42;26.40;64.20
12704;DHT22;6416;52.182;7.650;2023-05-10T14:29:07;26.30;65.00
12704;DHT22;6416;52.182;7.650;2023-05-10T14:31:33;26.20;64.90
12704;DHT22;6416;52.182;7.650;2023-05-10T14:33:58;26.20;64.90
12704;DHT22;6416;52.182;7.650;2023-05-10T14:36:24;26.20;64.60
12704;DHT22;6416;52.182;7.650;2023-05-10T14:38:49;26.20;64.50
12704;DHT22;6416;52.182;7.650;2023-05-10T14:41:15;26.20;64.50
12704;DHT22;6416;52.182;7.650;2023-05-10T14:43:41;26.10;64.50
12704;DHT22;6416;52.182;7.650;2023-05-10T14:46:06;26.10;64.70
12704;DHT22;6416;52.182;7.650;2023-05-10T14:48:32;26.10;65.00
12704;DHT22;6416;52.182;7.650;2023-05-10T14:50:57;26.00;64.70
12704;DHT22;6416;52.182;7.650;2023-05-10T14:53:23;26.10;64.90
12704;DHT22;6416;52.182;7.650;2023-05-10T14:55:48;26.00;65.20
12704;DHT22;6416;52.182;7.650;2023-05-10T14:58:14;26.00;65.20
12704;DHT22;6416;52.182;7.650;2023-05-10T15:00:40;26.00;65.20
12704;DHT22;6416;52.182;7.650;2023-05-10T15:03:06;26.00;65.00
12704;DHT22;6416;52.182;7.650;2023-05-10T15:05:31;26.00;65.00
12704;DHT22;6416;52.182;7.650;2023-05-10T15:07:57;25.90;64.90
12704;DHT22;6416;52.182;7.650;2023-05-10T15:10:22;25.80;64.60
12704;DHT22;6416;52.182;7.650;2023-05-10T15:12:47;25.80;64.60
12704;DHT22;6416;52.182;7.650;2023-05-10T15:15:13;25.70;64.60
12704;DHT22;6416;52.182;7.650;2023-05-10T15:17:38;25.60;64.50
12704;DHT22;6416;52.182;7.650;2023-05-10T15:20:04;25.50;64.30
12704;DHT22;6416;52.182;7.650;2023-05-10T15:22:30;25.40;64.40
12704;DHT22;6416;52.182;7.650;2023-05-10T15:24:55;25.30;64.30
12704;DHT22;6416;52.182;7.650;2023-05-10T15:27:21;25.10;64.50
12704;DHT22;6416;52.182;7.650;2023-05-10T15:29:46;25.00;64.80
12704;DHT22;6416;52.182;7.650;2023-05-10T15:32:12;24.90;65.20
12704;DHT22;6416;52.182;7.650;2023-05-10T15:34:37;24.70;65.40
12704;DHT22;6416;52.182;7.650;2023-05-10T15:37:03;24.60;65.70
12704;DHT22;6416;52.182;7.650;2023-05-10T15:39:28;24.50;65.80
12704;DHT22;6416;52.182;7.650;2023-05-10T15:41:54;24.40;66.10
12704;DHT22;6416;52.182;7.650;2023-05-10T15:44:19;24.40;66.90
12704;DHT22;6416;52.182;7.650;2023-05-10T15:46:45;24.30;67.20
12704;DHT22;6416;52.182;7.650;2023-05-10T15:49:10;24.30;67.60
12704;DHT22;6416;52.182;7.650;2023-05-10T15:51:35;24.40;67.90
12704;DHT22;6416;52.182;7.650;2023-05-10T15:54:01;24.40;68.00
12704;DHT22;6416;52.182;7.650;2023-05-10T15:56:27;24.40;67.80
12704;DHT22;6416;52.182;7.650;2023-05-10T15:58:52;24.40;67.80
12704;DHT22;6416;52.182;7.650;2023-05-10T16:01:18;24.40;67.50
12704;DHT22;6416;52.182;7.650;2023-05-10T16:03:43;24.30;67.10
12704;DHT22;6416;52.182;7.650;2023-05-10T16:06:09;24.30;67.30
12704;DHT22;6416;52.182;7.650;2023-05-10T16:08:34;24.30;67.00
12704;DHT22;6416;52.182;7.650;2023-05-10T16:11:00;24.20;66.90
12704;DHT22;6416;52.182;7.650;2023-05-10T16:13:25;24.20;66.90